Toryo Maru — JGPC — position and weather

sailwx.info

Track history (hours):
 
Tides and Currents Weather Stations Pressure Air Temp Water Temp Dewpoint Dewpoint Depression Visibility Wind Speed Wind Dir Waves Ship Positions

Toryo Maru

Last reported at 2017-Sep-10 06:03 UTC. Time now 2017-Sep-22 08:16 UTC.
Position N 34°60' E 139°27'.
Warning: this ship's position is 12 days out of date.

Length 69 m; draft 5 m.

Type: Tanker. MMSI: 431697000.

Date/timePositionNaut miles runAvg speedWind from/ knotsBaromVisibWave heightAir tempDewpointWater temp
2017-Sep-10 06:03N 34°60' E 139°27'110.3
2017-Sep-10 05:56N 35°00' E 139°28'410.5
2017-Sep-10 05:30N 35°03' E 139°33'612.0
2017-Sep-10 05:00N 35°06' E 139°39'612.1
2017-Sep-10 04:31N 35°10' E 139°44'611.7
2017-Sep-10 04:01N 35°15' E 139°47'612.0
2017-Sep-10 03:31N 35°20' E 139°42'611.0
2017-Sep-10 03:00N 35°25' E 139°44'612.0
2017-Sep-10 02:30N 35°29' E 139°50'711.4
2017-Sep-10 01:56N 35°30' E 139°58'2 0.6
2017-Sep-09 22:18N 35°29' E 140°01'2 6.2
2017-Sep-09 21:56N 35°30' E 139°58'3 2.3
2017-Sep-09 20:38N 35°29' E 139°55'0 0.0
2017-Sep-09 20:29N 35°29' E 139°55'0 0.1
2017-Sep-09 19:56N 35°29' E 139°55'0 0.0
2017-Sep-09 19:26N 35°29' E 139°55'0 0.1
2017-Sep-09 18:59N 35°29' E 139°55'0 0.0
2017-Sep-09 18:29N 35°29' E 139°55'0 0.0
2017-Sep-09 17:50N 35°29' E 139°55'0 0.0
2017-Sep-09 17:29N 35°29' E 139°55'0 0.0
2017-Sep-09 16:59N 35°29' E 139°55'0 0.0
2017-Sep-09 15:29N 35°29' E 139°55'2 3.4
2017-Sep-09 14:59N 35°28' E 139°53'611.9
2017-Sep-09 14:30N 35°25' E 139°47'612.0
2017-Sep-09 14:00N 35°20' E 139°44'611.1
2017-Sep-09 13:30N 35°14' E 139°47'612.3
2017-Sep-09 13:00N 35°08' E 139°45'612.6
2017-Sep-09 12:30N 35°03' E 139°41'714.0
2017-Sep-09 12:00N 34°59' E 139°34'813.9
2017-Sep-09 11:27N 34°55' E 139°26'  
2017-Sep-07 05:23N 34°03' E 135°03'510.9
2017-Sep-07 04:57N 34°08' E 135°04'3 0.5
2017-Sep-06 23:49N 34°07' E 135°07'1 2.2
2017-Sep-06 23:30N 34°08' E 135°07'2 4.3
2017-Sep-06 22:56N 34°09' E 135°09'0 0.0
2017-Sep-06 22:26N 34°10' E 135°09'0 0.0
2017-Sep-06 21:56N 34°10' E 135°09'0 0.0
2017-Sep-06 21:29N 34°10' E 135°09'0 0.0
2017-Sep-06 20:56N 34°10' E 135°09'0 0.0
2017-Sep-06 20:29N 34°10' E 135°09'0 0.0
2017-Sep-06 19:56N 34°09' E 135°09'0 0.1
2017-Sep-06 19:26N 34°09' E 135°09'0 0.0
2017-Sep-06 18:59N 34°09' E 135°09'0 0.0
2017-Sep-06 18:08N 34°09' E 135°09'0 0.0
2017-Sep-06 17:56N 34°09' E 135°09'0 0.0
2017-Sep-06 17:17N 34°10' E 135°09'0 0.0
2017-Sep-06 16:50N 34°09' E 135°09'0 0.0
2017-Sep-06 16:26N 34°09' E 135°09'0 0.0
2017-Sep-06 15:56N 34°09' E 135°09'0 0.0
2017-Sep-06 15:14N 34°09' E 135°09'0 0.0
2017-Sep-06 14:56N 34°09' E 135°09'0 0.0
2017-Sep-06 14:26N 34°10' E 135°09'0 0.0
2017-Sep-06 13:50N 34°10' E 135°09'0 0.0
2017-Sep-06 13:20N 34°10' E 135°09'0 0.0
2017-Sep-06 12:56N 34°10' E 135°09'0 0.0
2017-Sep-06 12:26N 34°10' E 135°09'0 0.0
2017-Sep-06 11:23N 34°10' E 135°09'0 0.0
2017-Sep-06 10:59N 34°10' E 135°09'0 0.0
2017-Sep-06 10:17N 34°10' E 135°09'0 0.0
2017-Sep-06 09:59N 34°10' E 135°09'0 0.0
2017-Sep-06 09:26N 34°10' E 135°09'0 0.0
2017-Sep-06 08:56N 34°10' E 135°09'0 0.0
2017-Sep-06 08:26N 34°10' E 135°09'0 0.0
2017-Sep-06 07:56N 34°10' E 135°09'3 6.6
2017-Sep-06 07:31N 34°09' E 135°06'712.6
2017-Sep-06 06:59N 34°08' E 134°58'30 1.0
2017-Sep-05 02:21N 34°37' E 135°02'410.9
2017-Sep-05 02:01N 34°35' E 135°05'612.4
2017-Sep-05 01:29N 34°29' E 135°04'1112.3
2017-Sep-05 00:35N 34°18' E 134°59'212.3
2017-Sep-05 00:26N 34°16' E 134°59'612.9
2017-Sep-04 23:57N 34°10' E 134°59'612.3
2017-Sep-04 23:30N 34°04' E 135°00'  
2017-Sep-02 04:58N 34°03' E 135°03'511.3
2017-Sep-02 04:29N 34°08' E 135°05'3 6.3
2017-Sep-02 03:56N 34°10' E 135°09'0 0.1
2017-Sep-02 03:29N 34°10' E 135°09'0 0.0
2017-Sep-02 02:59N 34°10' E 135°09'0 0.0
2017-Sep-02 02:29N 34°10' E 135°09'0 0.0
2017-Sep-02 01:59N 34°10' E 135°09'0 0.0
2017-Sep-02 01:29N 34°10' E 135°09'0 0.0
2017-Sep-02 00:59N 34°10' E 135°09'0 0.0
2017-Sep-02 00:29N 34°10' E 135°09'0 0.0
2017-Sep-01 23:59N 34°10' E 135°09'0 0.0
2017-Sep-01 23:23N 34°10' E 135°09'0 0.1
2017-Sep-01 22:47N 34°10' E 135°09'0 0.0
2017-Sep-01 22:29N 34°10' E 135°09'0 0.0
2017-Sep-01 21:59N 34°10' E 135°09'0 0.0
2017-Sep-01 21:29N 34°10' E 135°09'0 0.0
2017-Sep-01 20:59N 34°10' E 135°09'0 0.0
2017-Sep-01 20:29N 34°10' E 135°09'0 0.0
2017-Sep-01 19:56N 34°10' E 135°09'0 0.0
2017-Sep-01 19:26N 34°10' E 135°09'0 0.0
2017-Sep-01 18:44N 34°10' E 135°09'0 0.0
2017-Sep-01 18:29N 34°10' E 135°09'0 0.0
2017-Sep-01 17:53N 34°10' E 135°09'0 0.0
2017-Sep-01 17:29N 34°10' E 135°09'0 0.0
2017-Sep-01 16:59N 34°10' E 135°09'0 0.0
2017-Sep-01 16:23N 34°10' E 135°09'0 0.0
2017-Sep-01 15:59N 34°10' E 135°09'0 0.0
2017-Sep-01 15:29N 34°10' E 135°09'0 0.0
2017-Sep-01 14:59N 34°10' E 135°09'0 0.0
2017-Sep-01 14:26N 34°10' E 135°09'0 0.0
2017-Sep-01 13:59N 34°10' E 135°09'0 0.0
2017-Sep-01 13:29N 34°10' E 135°09'0 0.0
2017-Sep-01 12:59N 34°10' E 135°09'0 0.0
2017-Sep-01 12:29N 34°10' E 135°09'0 0.0
2017-Sep-01 11:44N 34°10' E 135°09'0 0.0
2017-Sep-01 11:23N 34°10' E 135°09'0 0.0
2017-Sep-01 10:59N 34°10' E 135°09'0 0.0
2017-Sep-01 10:29N 34°10' E 135°09'0 0.0
2017-Sep-01 09:59N 34°10' E 135°09'0 0.0
2017-Sep-01 09:29N 34°10' E 135°09'0 0.0
2017-Sep-01 08:59N 34°10' E 135°09'0 0.0
2017-Sep-01 08:29N 34°10' E 135°09'0 0.0
2017-Sep-01 07:53N 34°10' E 135°09'0 0.0
2017-Sep-01 07:29N 34°10' E 135°09'0 0.0
2017-Sep-01 06:59N 34°10' E 135°09'0 0.0
2017-Sep-01 06:29N 34°10' E 135°09'0 0.0
2017-Sep-01 05:53N 34°10' E 135°09'0 0.0
2017-Sep-01 05:29N 34°10' E 135°09'0 0.0
2017-Sep-01 04:50N 34°10' E 135°09'0 0.0
2017-Sep-01 04:17N 34°10' E 135°09'0 0.0
2017-Sep-01 03:59N 34°10' E 135°09'0 0.0
2017-Sep-01 03:26N 34°10' E 135°09'0 0.0
2017-Sep-01 02:32N 34°10' E 135°09'0 0.1
2017-Sep-01 02:26N 34°10' E 135°09'0 0.0
2017-Sep-01 01:59N 34°10' E 135°09'0 0.0
2017-Sep-01 01:29N 34°10' E 135°09'0 0.0
2017-Sep-01 00:53N 34°10' E 135°09'0 0.0
2017-Sep-01 00:29N 34°10' E 135°09'0 0.1
2017-Aug-31 23:59N 34°10' E 135°09'0 0.1
2017-Aug-31 23:29N 34°10' E 135°09'0 0.0
2017-Aug-31 22:56N 34°10' E 135°09'0 0.0
2017-Aug-31 22:26N 34°10' E 135°09'0 0.0
2017-Aug-31 21:59N 34°10' E 135°09'0 0.0
2017-Aug-31 21:29N 34°10' E 135°09'0 0.0
2017-Aug-31 20:56N 34°10' E 135°09'0 0.0
2017-Aug-31 20:29N 34°10' E 135°09'0 0.0
2017-Aug-31 19:59N 34°10' E 135°09'0 0.0
2017-Aug-31 19:29N 34°10' E 135°09'0 0.0
2017-Aug-31 18:59N 34°10' E 135°09'0 0.0
2017-Aug-31 18:26N 34°10' E 135°09'0 0.0
2017-Aug-31 17:53N 34°10' E 135°09'0 0.0
2017-Aug-31 17:29N 34°10' E 135°09'0 0.0
2017-Aug-31 16:53N 34°10' E 135°09'0 0.0
2017-Aug-31 16:23N 34°10' E 135°09'0 0.0
2017-Aug-31 15:56N 34°10' E 135°09'0 0.0
2017-Aug-31 15:29N 34°10' E 135°09'0 0.0
2017-Aug-31 14:56N 34°10' E 135°09'0 0.0
2017-Aug-31 14:20N 34°10' E 135°09'0 0.0
2017-Aug-31 13:59N 34°10' E 135°09'0 0.0
2017-Aug-31 13:26N 34°10' E 135°09'0 0.0
2017-Aug-31 12:59N 34°10' E 135°09'0 0.0
2017-Aug-31 12:29N 34°10' E 135°09'0 0.0
2017-Aug-31 11:53N 34°10' E 135°09'0 0.0
2017-Aug-31 11:26N 34°10' E 135°09'0 0.0
2017-Aug-31 10:56N 34°10' E 135°09'0 0.0
2017-Aug-31 10:26N 34°10' E 135°09'0 0.0
2017-Aug-31 09:53N 34°10' E 135°09'0 0.0
2017-Aug-31 09:26N 34°10' E 135°09'0 0.0
2017-Aug-31 08:59N 34°10' E 135°09'0 0.1
2017-Aug-31 08:14N 34°10' E 135°09'0 0.1
2017-Aug-31 07:53N 34°10' E 135°09'0 0.0
2017-Aug-31 07:29N 34°10' E 135°09'0 0.0
2017-Aug-31 06:59N 34°10' E 135°09'0 0.0
2017-Aug-31 06:29N 34°10' E 135°09'  
Track history (hours):
 
Tides and Currents Weather Stations Pressure Air Temp Water Temp Dewpoint Dewpoint Depression Visibility Wind Speed Wind Dir Waves Ship Positions

Toryo Maru

Last reported at 2017-Sep-10 06:03 UTC. Time now 2017-Sep-22 08:16 UTC.
Position N 34°60' E 139°27'.
Warning: this ship's position is 12 days out of date.

Length 69 m; draft 5 m.

Type: Tanker. MMSI: 431697000.

Date/timePositionNaut miles runAvg speedWind from/ knotsBaromVisibWave heightAir tempDewpointWater temp
2017-Sep-10 06:03N 34°60' E 139°27'110.3
2017-Sep-10 05:56N 35°00' E 139°28'410.5
2017-Sep-10 05:30N 35°03' E 139°33'612.0
2017-Sep-10 05:00N 35°06' E 139°39'612.1
2017-Sep-10 04:31N 35°10' E 139°44'611.7
2017-Sep-10 04:01N 35°15' E 139°47'612.0
2017-Sep-10 03:31N 35°20' E 139°42'611.0
2017-Sep-10 03:00N 35°25' E 139°44'612.0
2017-Sep-10 02:30N 35°29' E 139°50'711.4
2017-Sep-10 01:56N 35°30' E 139°58'2 0.6
2017-Sep-09 22:18N 35°29' E 140°01'2 6.2
2017-Sep-09 21:56N 35°30' E 139°58'3 2.3
2017-Sep-09 20:38N 35°29' E 139°55'0 0.0
2017-Sep-09 20:29N 35°29' E 139°55'0 0.1
2017-Sep-09 19:56N 35°29' E 139°55'0 0.0
2017-Sep-09 19:26N 35°29' E 139°55'0 0.1
2017-Sep-09 18:59N 35°29' E 139°55'0 0.0
2017-Sep-09 18:29N 35°29' E 139°55'0 0.0
2017-Sep-09 17:50N 35°29' E 139°55'0 0.0
2017-Sep-09 17:29N 35°29' E 139°55'0 0.0
2017-Sep-09 16:59N 35°29' E 139°55'0 0.0
2017-Sep-09 15:29N 35°29' E 139°55'2 3.4
2017-Sep-09 14:59N 35°28' E 139°53'611.9
2017-Sep-09 14:30N 35°25' E 139°47'612.0
2017-Sep-09 14:00N 35°20' E 139°44'611.1
2017-Sep-09 13:30N 35°14' E 139°47'612.3
2017-Sep-09 13:00N 35°08' E 139°45'612.6
2017-Sep-09 12:30N 35°03' E 139°41'714.0
2017-Sep-09 12:00N 34°59' E 139°34'813.9
2017-Sep-09 11:27N 34°55' E 139°26'  
2017-Sep-07 05:23N 34°03' E 135°03'510.9
2017-Sep-07 04:57N 34°08' E 135°04'3 0.5
2017-Sep-06 23:49N 34°07' E 135°07'1 2.2
2017-Sep-06 23:30N 34°08' E 135°07'2 4.3
2017-Sep-06 22:56N 34°09' E 135°09'0 0.0
2017-Sep-06 22:26N 34°10' E 135°09'0 0.0
2017-Sep-06 21:56N 34°10' E 135°09'0 0.0
2017-Sep-06 21:29N 34°10' E 135°09'0 0.0
2017-Sep-06 20:56N 34°10' E 135°09'0 0.0
2017-Sep-06 20:29N 34°10' E 135°09'0 0.0
2017-Sep-06 19:56N 34°09' E 135°09'0 0.1
2017-Sep-06 19:26N 34°09' E 135°09'0 0.0
2017-Sep-06 18:59N 34°09' E 135°09'0 0.0
2017-Sep-06 18:08N 34°09' E 135°09'0 0.0
2017-Sep-06 17:56N 34°09' E 135°09'0 0.0
2017-Sep-06 17:17N 34°10' E 135°09'0 0.0
2017-Sep-06 16:50N 34°09' E 135°09'0 0.0
2017-Sep-06 16:26N 34°09' E 135°09'0 0.0
2017-Sep-06 15:56N 34°09' E 135°09'0 0.0
2017-Sep-06 15:14N 34°09' E 135°09'0 0.0
2017-Sep-06 14:56N 34°09' E 135°09'0 0.0
2017-Sep-06 14:26N 34°10' E 135°09'0 0.0
2017-Sep-06 13:50N 34°10' E 135°09'0 0.0
2017-Sep-06 13:20N 34°10' E 135°09'0 0.0
2017-Sep-06 12:56N 34°10' E 135°09'0 0.0
2017-Sep-06 12:26N 34°10' E 135°09'0 0.0
2017-Sep-06 11:23N 34°10' E 135°09'0 0.0
2017-Sep-06 10:59N 34°10' E 135°09'0 0.0
2017-Sep-06 10:17N 34°10' E 135°09'0 0.0
2017-Sep-06 09:59N 34°10' E 135°09'0 0.0
2017-Sep-06 09:26N 34°10' E 135°09'0 0.0
2017-Sep-06 08:56N 34°10' E 135°09'0 0.0
2017-Sep-06 08:26N 34°10' E 135°09'0 0.0
2017-Sep-06 07:56N 34°10' E 135°09'3 6.6
2017-Sep-06 07:31N 34°09' E 135°06'712.6
2017-Sep-06 06:59N 34°08' E 134°58'30 1.0
2017-Sep-05 02:21N 34°37' E 135°02'410.9
2017-Sep-05 02:01N 34°35' E 135°05'612.4
2017-Sep-05 01:29N 34°29' E 135°04'1112.3
2017-Sep-05 00:35N 34°18' E 134°59'212.3
2017-Sep-05 00:26N 34°16' E 134°59'612.9
2017-Sep-04 23:57N 34°10' E 134°59'612.3
2017-Sep-04 23:30N 34°04' E 135°00'  
2017-Sep-02 04:58N 34°03' E 135°03'511.3
2017-Sep-02 04:29N 34°08' E 135°05'3 6.3
2017-Sep-02 03:56N 34°10' E 135°09'0 0.1
2017-Sep-02 03:29N 34°10' E 135°09'0 0.0
2017-Sep-02 02:59N 34°10' E 135°09'0 0.0
2017-Sep-02 02:29N 34°10' E 135°09'0 0.0
2017-Sep-02 01:59N 34°10' E 135°09'0 0.0
2017-Sep-02 01:29N 34°10' E 135°09'0 0.0
2017-Sep-02 00:59N 34°10' E 135°09'0 0.0
2017-Sep-02 00:29N 34°10' E 135°09'0 0.0
2017-Sep-01 23:59N 34°10' E 135°09'0 0.0
2017-Sep-01 23:23N 34°10' E 135°09'0 0.1
2017-Sep-01 22:47N 34°10' E 135°09'0 0.0
2017-Sep-01 22:29N 34°10' E 135°09'0 0.0
2017-Sep-01 21:59N 34°10' E 135°09'0 0.0
2017-Sep-01 21:29N 34°10' E 135°09'0 0.0
2017-Sep-01 20:59N 34°10' E 135°09'0 0.0
2017-Sep-01 20:29N 34°10' E 135°09'0 0.0
2017-Sep-01 19:56N 34°10' E 135°09'0 0.0
2017-Sep-01 19:26N 34°10' E 135°09'0 0.0
2017-Sep-01 18:44N 34°10' E 135°09'0 0.0
2017-Sep-01 18:29N 34°10' E 135°09'0 0.0
2017-Sep-01 17:53N 34°10' E 135°09'0 0.0
2017-Sep-01 17:29N 34°10' E 135°09'0 0.0
2017-Sep-01 16:59N 34°10' E 135°09'0 0.0
2017-Sep-01 16:23N 34°10' E 135°09'0 0.0
2017-Sep-01 15:59N 34°10' E 135°09'0 0.0
2017-Sep-01 15:29N 34°10' E 135°09'0 0.0
2017-Sep-01 14:59N 34°10' E 135°09'0 0.0
2017-Sep-01 14:26N 34°10' E 135°09'0 0.0
2017-Sep-01 13:59N 34°10' E 135°09'0 0.0
2017-Sep-01 13:29N 34°10' E 135°09'0 0.0
2017-Sep-01 12:59N 34°10' E 135°09'0 0.0
2017-Sep-01 12:29N 34°10' E 135°09'0 0.0
2017-Sep-01 11:44N 34°10' E 135°09'0 0.0
2017-Sep-01 11:23N 34°10' E 135°09'0 0.0
2017-Sep-01 10:59N 34°10' E 135°09'0 0.0
2017-Sep-01 10:29N 34°10' E 135°09'0 0.0
2017-Sep-01 09:59N 34°10' E 135°09'0 0.0
2017-Sep-01 09:29N 34°10' E 135°09'0 0.0
2017-Sep-01 08:59N 34°10' E 135°09'0 0.0
2017-Sep-01 08:29N 34°10' E 135°09'0 0.0
2017-Sep-01 07:53N 34°10' E 135°09'0 0.0
2017-Sep-01 07:29N 34°10' E 135°09'0 0.0
2017-Sep-01 06:59N 34°10' E 135°09'0 0.0
2017-Sep-01 06:29N 34°10' E 135°09'0 0.0
2017-Sep-01 05:53N 34°10' E 135°09'0 0.0
2017-Sep-01 05:29N 34°10' E 135°09'0 0.0
2017-Sep-01 04:50N 34°10' E 135°09'0 0.0
2017-Sep-01 04:17N 34°10' E 135°09'0 0.0
2017-Sep-01 03:59N 34°10' E 135°09'0 0.0
2017-Sep-01 03:26N 34°10' E 135°09'0 0.0
2017-Sep-01 02:32N 34°10' E 135°09'0 0.1
2017-Sep-01 02:26N 34°10' E 135°09'0 0.0
2017-Sep-01 01:59N 34°10' E 135°09'0 0.0
2017-Sep-01 01:29N 34°10' E 135°09'0 0.0
2017-Sep-01 00:53N 34°10' E 135°09'0 0.0
2017-Sep-01 00:29N 34°10' E 135°09'0 0.1
2017-Aug-31 23:59N 34°10' E 135°09'0 0.1
2017-Aug-31 23:29N 34°10' E 135°09'0 0.0
2017-Aug-31 22:56N 34°10' E 135°09'0 0.0
2017-Aug-31 22:26N 34°10' E 135°09'0 0.0
2017-Aug-31 21:59N 34°10' E 135°09'0 0.0
2017-Aug-31 21:29N 34°10' E 135°09'0 0.0
2017-Aug-31 20:56N 34°10' E 135°09'0 0.0
2017-Aug-31 20:29N 34°10' E 135°09'0 0.0
2017-Aug-31 19:59N 34°10' E 135°09'0 0.0
2017-Aug-31 19:29N 34°10' E 135°09'0 0.0
2017-Aug-31 18:59N 34°10' E 135°09'0 0.0
2017-Aug-31 18:26N 34°10' E 135°09'0 0.0
2017-Aug-31 17:53N 34°10' E 135°09'0 0.0
2017-Aug-31 17:29N 34°10' E 135°09'0 0.0
2017-Aug-31 16:53N 34°10' E 135°09'0 0.0
2017-Aug-31 16:23N 34°10' E 135°09'0 0.0
2017-Aug-31 15:56N 34°10' E 135°09'0 0.0
2017-Aug-31 15:29N 34°10' E 135°09'0 0.0
2017-Aug-31 14:56N 34°10' E 135°09'0 0.0
2017-Aug-31 14:20N 34°10' E 135°09'0 0.0
2017-Aug-31 13:59N 34°10' E 135°09'0 0.0
2017-Aug-31 13:26N 34°10' E 135°09'0 0.0
2017-Aug-31 12:59N 34°10' E 135°09'0 0.0
2017-Aug-31 12:29N 34°10' E 135°09'0 0.0
2017-Aug-31 11:53N 34°10' E 135°09'0 0.0
2017-Aug-31 11:26N 34°10' E 135°09'0 0.0
2017-Aug-31 10:56N 34°10' E 135°09'0 0.0
2017-Aug-31 10:26N 34°10' E 135°09'0 0.0
2017-Aug-31 09:53N 34°10' E 135°09'0 0.0
2017-Aug-31 09:26N 34°10' E 135°09'0 0.0
2017-Aug-31 08:59N 34°10' E 135°09'0 0.1
2017-Aug-31 08:14N 34°10' E 135°09'0 0.1
2017-Aug-31 07:53N 34°10' E 135°09'0 0.0
2017-Aug-31 07:29N 34°10' E 135°09'0 0.0
2017-Aug-31 06:59N 34°10' E 135°09'0 0.0
2017-Aug-31 06:29N 34°10' E 135°09'  

Dump ship's entire track history